sensor_id;sensor_type;location;lat;lon;timestamp;P1;durP1;ratioP1;P2;durP2;ratioP2
83435;SDS011;73365;51.688;5.132;2023-11-21T00:01:25;17.60;;;9.55;;
83435;SDS011;73365;51.688;5.132;2023-11-21T00:03:50;17.80;;;10.40;;
83435;SDS011;73365;51.688;5.132;2023-11-21T00:06:16;18.27;;;9.77;;
83435;SDS011;73365;51.688;5.132;2023-11-21T00:08:41;17.40;;;9.75;;
83435;SDS011;73365;51.688;5.132;2023-11-21T00:11:06;18.55;;;9.95;;
83435;SDS011;73365;51.688;5.132;2023-11-21T00:13:32;17.65;;;10.38;;
83435;SDS011;73365;51.688;5.132;2023-11-21T00:15:58;18.45;;;9.65;;
83435;SDS011;73365;51.688;5.132;2023-11-21T00:18:23;18.42;;;11.43;;
83435;SDS011;73365;51.688;5.132;2023-11-21T00:20:49;17.92;;;10.77;;
83435;SDS011;73365;51.688;5.132;2023-11-21T00:23:14;19.40;;;10.97;;
83435;SDS011;73365;51.688;5.132;2023-11-21T00:25:40;21.20;;;11.40;;
83435;SDS011;73365;51.688;5.132;2023-11-21T00:28:05;18.30;;;9.75;;
83435;SDS011;73365;51.688;5.132;2023-11-21T00:30:31;19.08;;;10.07;;
83435;SDS011;73365;51.688;5.132;2023-11-21T00:32:56;17.38;;;8.88;;
83435;SDS011;73365;51.688;5.132;2023-11-21T00:35:22;17.85;;;9.13;;
83435;SDS011;73365;51.688;5.132;2023-11-21T00:37:47;18.83;;;10.80;;
83435;SDS011;73365;51.688;5.132;2023-11-21T00:40:14;19.45;;;9.75;;
83435;SDS011;73365;51.688;5.132;2023-11-21T00:42:40;21.33;;;10.82;;
83435;SDS011;73365;51.688;5.132;2023-11-21T00:45:06;20.23;;;10.40;;
83435;SDS011;73365;51.688;5.132;2023-11-21T00:49:57;17.80;;;9.33;;
83435;SDS011;73365;51.688;5.132;2023-11-21T00:52:23;21.25;;;9.80;;
83435;SDS011;73365;51.688;5.132;2023-11-21T00:54:48;19.02;;;9.27;;
83435;SDS011;73365;51.688;5.132;2023-11-21T00:57:14;19.38;;;9.20;;
83435;SDS011;73365;51.688;5.132;2023-11-21T00:59:39;17.92;;;9.82;;
83435;SDS011;73365;51.688;5.132;2023-11-21T01:02:05;20.58;;;9.90;;
83435;SDS011;73365;51.688;5.132;2023-11-21T01:04:30;20.40;;;9.90;;
83435;SDS011;73365;51.688;5.132;2023-11-21T01:06:57;21.65;;;10.73;;
83435;SDS011;73365;51.688;5.132;2023-11-21T01:09:23;18.52;;;10.95;;
83435;SDS011;73365;51.688;5.132;2023-11-21T01:11:49;18.85;;;9.57;;
83435;SDS011;73365;51.688;5.132;2023-11-21T01:14:14;20.00;;;10.10;;
83435;SDS011;73365;51.688;5.132;2023-11-21T01:16:39;18.67;;;9.65;;
83435;SDS011;73365;51.688;5.132;2023-11-21T01:19:05;17.60;;;9.68;;
83435;SDS011;73365;51.688;5.132;2023-11-21T01:21:30;16.95;;;9.00;;
83435;SDS011;73365;51.688;5.132;2023-11-21T01:23:56;18.88;;;9.48;;
83435;SDS011;73365;51.688;5.132;2023-11-21T01:26:22;16.88;;;9.88;;
83435;SDS011;73365;51.688;5.132;2023-11-21T01:31:14;19.58;;;9.32;;
83435;SDS011;73365;51.688;5.132;2023-11-21T01:36:05;18.53;;;9.07;;
83435;SDS011;73365;51.688;5.132;2023-11-21T01:38:31;16.88;;;9.13;;
83435;SDS011;73365;51.688;5.132;2023-11-21T01:40:57;19.58;;;10.18;;
83435;SDS011;73365;51.688;5.132;2023-11-21T01:43:22;18.95;;;9.70;;
83435;SDS011;73365;51.688;5.132;2023-11-21T01:45:48;15.68;;;9.00;;
83435;SDS011;73365;51.688;5.132;2023-11-21T01:48:13;15.45;;;8.52;;
83435;SDS011;73365;51.688;5.132;2023-11-21T01:50:39;19.35;;;9.27;;
83435;SDS011;73365;51.688;5.132;2023-11-21T01:53:04;16.75;;;10.55;;
83435;SDS011;73365;51.688;5.132;2023-11-21T01:55:31;18.10;;;9.65;;
83435;SDS011;73365;51.688;5.132;2023-11-21T01:57:58;19.75;;;9.18;;
83435;SDS011;73365;51.688;5.132;2023-11-21T02:00:25;16.15;;;10.50;;
83435;SDS011;73365;51.688;5.132;2023-11-21T02:02:52;16.65;;;8.73;;
83435;SDS011;73365;51.688;5.132;2023-11-21T02:05:18;19.00;;;9.90;;
83435;SDS011;73365;51.688;5.132;2023-11-21T02:07:45;19.30;;;9.82;;
83435;SDS011;73365;51.688;5.132;2023-11-21T02:10:13;20.08;;;9.65;;
83435;SDS011;73365;51.688;5.132;2023-11-21T02:12:40;17.35;;;8.95;;
83435;SDS011;73365;51.688;5.132;2023-11-21T02:15:07;17.52;;;9.45;;
83435;SDS011;73365;51.688;5.132;2023-11-21T02:17:40;16.27;;;10.32;;
83435;SDS011;73365;51.688;5.132;2023-11-21T02:22:40;17.75;;;9.05;;
83435;SDS011;73365;51.688;5.132;2023-11-21T02:25:07;16.20;;;10.23;;
83435;SDS011;73365;51.688;5.132;2023-11-21T02:27:33;15.18;;;9.20;;
83435;SDS011;73365;51.688;5.132;2023-11-21T02:29:58;14.80;;;9.48;;
83435;SDS011;73365;51.688;5.132;2023-11-21T02:32:24;13.90;;;9.32;;
83435;SDS011;73365;51.688;5.132;2023-11-21T02:34:51;13.80;;;8.85;;
83435;SDS011;73365;51.688;5.132;2023-11-21T02:37:16;14.15;;;9.15;;
83435;SDS011;73365;51.688;5.132;2023-11-21T02:39:41;13.23;;;8.88;;
83435;SDS011;73365;51.688;5.132;2023-11-21T02:42:07;14.90;;;8.97;;
83435;SDS011;73365;51.688;5.132;2023-11-21T02:44:33;13.45;;;8.75;;
83435;SDS011;73365;51.688;5.132;2023-11-21T02:46:58;13.43;;;8.85;;
83435;SDS011;73365;51.688;5.132;2023-11-21T02:49:25;11.48;;;7.78;;
83435;SDS011;73365;51.688;5.132;2023-11-21T02:51:53;13.52;;;8.60;;
83435;SDS011;73365;51.688;5.132;2023-11-21T02:54:19;14.88;;;8.80;;
83435;SDS011;73365;51.688;5.132;2023-11-21T02:56:46;12.35;;;8.85;;
83435;SDS011;73365;51.688;5.132;2023-11-21T02:59:12;13.45;;;8.63;;
83435;SDS011;73365;51.688;5.132;2023-11-21T03:01:37;13.40;;;8.25;;
83435;SDS011;73365;51.688;5.132;2023-11-21T03:04:03;12.80;;;8.38;;
83435;SDS011;73365;51.688;5.132;2023-11-21T03:06:28;13.43;;;8.50;;
83435;SDS011;73365;51.688;5.132;2023-11-21T03:08:54;13.85;;;8.75;;
83435;SDS011;73365;51.688;5.132;2023-11-21T03:11:19;14.55;;;9.02;;
83435;SDS011;73365;51.688;5.132;2023-11-21T03:13:45;12.80;;;8.65;;
83435;SDS011;73365;51.688;5.132;2023-11-21T03:16:10;10.48;;;7.38;;
83435;SDS011;73365;51.688;5.132;2023-11-21T03:21:02;13.55;;;8.45;;
83435;SDS011;73365;51.688;5.132;2023-11-21T03:23:29;14.20;;;9.13;;
83435;SDS011;73365;51.688;5.132;2023-11-21T03:25:54;11.98;;;7.95;;
83435;SDS011;73365;51.688;5.132;2023-11-21T03:28:20;15.20;;;7.87;;
83435;SDS011;73365;51.688;5.132;2023-11-21T03:30:45;12.40;;;8.20;;
83435;SDS011;73365;51.688;5.132;2023-11-21T03:33:10;11.97;;;8.20;;
83435;SDS011;73365;51.688;5.132;2023-11-21T03:35:36;13.13;;;8.20;;
83435;SDS011;73365;51.688;5.132;2023-11-21T03:38:01;11.27;;;7.88;;
83435;SDS011;73365;51.688;5.132;2023-11-21T03:40:27;12.70;;;7.63;;
83435;SDS011;73365;51.688;5.132;2023-11-21T03:42:52;14.75;;;8.25;;
83435;SDS011;73365;51.688;5.132;2023-11-21T03:45:17;13.68;;;7.60;;
83435;SDS011;73365;51.688;5.132;2023-11-21T03:47:43;13.00;;;8.25;;
83435;SDS011;73365;51.688;5.132;2023-11-21T03:50:08;13.00;;;8.23;;
83435;SDS011;73365;51.688;5.132;2023-11-21T03:52:34;12.82;;;8.40;;
83435;SDS011;73365;51.688;5.132;2023-11-21T03:55:00;12.80;;;8.23;;
83435;SDS011;73365;51.688;5.132;2023-11-21T03:59:52;11.57;;;7.10;;
83435;SDS011;73365;51.688;5.132;2023-11-21T04:02:18;13.82;;;8.02;;
83435;SDS011;73365;51.688;5.132;2023-11-21T04:04:43;12.03;;;7.70;;
83435;SDS011;73365;51.688;5.132;2023-11-21T04:07:09;15.68;;;7.82;;
83435;SDS011;73365;51.688;5.132;2023-11-21T04:09:34;13.43;;;7.50;;
83435;SDS011;73365;51.688;5.132;2023-11-21T04:12:01;14.38;;;7.60;;
83435;SDS011;73365;51.688;5.132;2023-11-21T04:14:27;11.98;;;7.28;;
83435;SDS011;73365;51.688;5.132;2023-11-21T04:16:52;14.73;;;7.95;;
83435;SDS011;73365;51.688;5.132;2023-11-21T04:21:43;13.02;;;8.07;;
83435;SDS011;73365;51.688;5.132;2023-11-21T04:24:09;13.57;;;7.50;;
83435;SDS011;73365;51.688;5.132;2023-11-21T04:26:35;13.23;;;7.60;;
83435;SDS011;73365;51.688;5.132;2023-11-21T04:29:00;13.23;;;7.57;;
83435;SDS011;73365;51.688;5.132;2023-11-21T04:31:26;10.95;;;7.40;;
83435;SDS011;73365;51.688;5.132;2023-11-21T04:33:51;13.80;;;8.45;;
83435;SDS011;73365;51.688;5.132;2023-11-21T04:36:17;13.10;;;8.60;;
83435;SDS011;73365;51.688;5.132;2023-11-21T04:38:42;13.27;;;8.90;;
83435;SDS011;73365;51.688;5.132;2023-11-21T04:41:08;15.52;;;8.45;;
83435;SDS011;73365;51.688;5.132;2023-11-21T04:43:33;15.73;;;9.07;;
83435;SDS011;73365;51.688;5.132;2023-11-21T04:45:58;14.07;;;8.52;;
83435;SDS011;73365;51.688;5.132;2023-11-21T04:48:24;14.68;;;8.45;;
83435;SDS011;73365;51.688;5.132;2023-11-21T04:50:50;15.52;;;9.90;;
83435;SDS011;73365;51.688;5.132;2023-11-21T04:53:16;17.20;;;9.43;;
83435;SDS011;73365;51.688;5.132;2023-11-21T04:55:41;14.27;;;8.70;;
83435;SDS011;73365;51.688;5.132;2023-11-21T04:58:07;19.95;;;8.55;;
83435;SDS011;73365;51.688;5.132;2023-11-21T05:00:33;15.15;;;8.95;;
83435;SDS011;73365;51.688;5.132;2023-11-21T05:02:58;18.17;;;8.85;;
83435;SDS011;73365;51.688;5.132;2023-11-21T05:05:26;17.00;;;10.18;;
83435;SDS011;73365;51.688;5.132;2023-11-21T05:07:51;19.52;;;9.45;;
83435;SDS011;73365;51.688;5.132;2023-11-21T05:10:18;18.80;;;10.18;;
83435;SDS011;73365;51.688;5.132;2023-11-21T05:12:44;18.25;;;11.48;;
83435;SDS011;73365;51.688;5.132;2023-11-21T05:15:13;19.52;;;10.60;;
83435;SDS011;73365;51.688;5.132;2023-11-21T05:17:39;19.05;;;10.98;;
83435;SDS011;73365;51.688;5.132;2023-11-21T05:20:09;21.77;;;11.10;;
83435;SDS011;73365;51.688;5.132;2023-11-21T05:22:36;21.48;;;11.45;;
83435;SDS011;73365;51.688;5.132;2023-11-21T05:25:02;20.73;;;12.23;;
83435;SDS011;73365;51.688;5.132;2023-11-21T05:27:29;23.75;;;11.98;;
83435;SDS011;73365;51.688;5.132;2023-11-21T05:29:55;22.90;;;11.95;;
83435;SDS011;73365;51.688;5.132;2023-11-21T05:32:21;22.33;;;11.85;;
83435;SDS011;73365;51.688;5.132;2023-11-21T05:37:13;24.13;;;11.73;;
83435;SDS011;73365;51.688;5.132;2023-11-21T05:39:38;26.00;;;11.67;;
83435;SDS011;73365;51.688;5.132;2023-11-21T05:42:03;26.90;;;13.50;;
83435;SDS011;73365;51.688;5.132;2023-11-21T05:44:29;26.55;;;14.40;;
83435;SDS011;73365;51.688;5.132;2023-11-21T05:46:55;26.55;;;11.55;;
83435;SDS011;73365;51.688;5.132;2023-11-21T05:49:20;21.40;;;11.70;;
83435;SDS011;73365;51.688;5.132;2023-11-21T05:51:50;22.30;;;11.68;;
83435;SDS011;73365;51.688;5.132;2023-11-21T05:54:19;22.15;;;11.55;;
83435;SDS011;73365;51.688;5.132;2023-11-21T05:56:44;20.88;;;10.93;;
83435;SDS011;73365;51.688;5.132;2023-11-21T05:59:09;27.85;;;12.25;;
83435;SDS011;73365;51.688;5.132;2023-11-21T06:01:35;26.10;;;12.05;;
83435;SDS011;73365;51.688;5.132;2023-11-21T06:04:03;24.95;;;12.25;;
83435;SDS011;73365;51.688;5.132;2023-11-21T06:08:56;19.95;;;11.00;;
83435;SDS011;73365;51.688;5.132;2023-11-21T06:11:21;18.02;;;10.32;;
83435;SDS011;73365;51.688;5.132;2023-11-21T06:13:47;22.35;;;11.75;;
83435;SDS011;73365;51.688;5.132;2023-11-21T06:16:13;22.63;;;11.68;;
83435;SDS011;73365;51.688;5.132;2023-11-21T06:18:41;20.52;;;12.32;;
83435;SDS011;73365;51.688;5.132;2023-11-21T06:21:09;18.73;;;11.10;;
83435;SDS011;73365;51.688;5.132;2023-11-21T06:23:34;20.40;;;11.27;;
83435;SDS011;73365;51.688;5.132;2023-11-21T06:26:00;20.40;;;11.25;;
83435;SDS011;73365;51.688;5.132;2023-11-21T06:28:26;21.52;;;11.32;;
83435;SDS011;73365;51.688;5.132;2023-11-21T06:30:51;19.42;;;11.25;;
83435;SDS011;73365;51.688;5.132;2023-11-21T06:33:18;21.40;;;11.93;;
83435;SDS011;73365;51.688;5.132;2023-11-21T06:35:43;18.40;;;10.98;;
83435;SDS011;73365;51.688;5.132;2023-11-21T06:38:09;18.08;;;11.07;;
83435;SDS011;73365;51.688;5.132;2023-11-21T06:40:35;17.20;;;11.38;;
83435;SDS011;73365;51.688;5.132;2023-11-21T06:43:01;19.38;;;11.63;;
83435;SDS011;73365;51.688;5.132;2023-11-21T06:45:26;18.77;;;11.00;;
83435;SDS011;73365;51.688;5.132;2023-11-21T06:47:51;20.88;;;12.00;;
83435;SDS011;73365;51.688;5.132;2023-11-21T06:50:17;19.35;;;10.70;;
83435;SDS011;73365;51.688;5.132;2023-11-21T06:52:43;18.20;;;10.23;;
83435;SDS011;73365;51.688;5.132;2023-11-21T06:55:08;19.73;;;10.20;;
83435;SDS011;73365;51.688;5.132;2023-11-21T06:57:34;18.02;;;10.68;;
83435;SDS011;73365;51.688;5.132;2023-11-21T07:00:00;18.13;;;11.30;;
83435;SDS011;73365;51.688;5.132;2023-11-21T07:04:51;22.80;;;10.77;;
83435;SDS011;73365;51.688;5.132;2023-11-21T07:07:16;19.77;;;9.82;;
83435;SDS011;73365;51.688;5.132;2023-11-21T07:09:43;17.70;;;10.70;;
83435;SDS011;73365;51.688;5.132;2023-11-21T07:12:08;22.50;;;11.25;;
83435;SDS011;73365;51.688;5.132;2023-11-21T07:14:34;20.52;;;10.77;;
83435;SDS011;73365;51.688;5.132;2023-11-21T07:16:59;22.58;;;11.40;;
83435;SDS011;73365;51.688;5.132;2023-11-21T07:19:25;19.48;;;11.73;;
83435;SDS011;73365;51.688;5.132;2023-11-21T07:21:50;23.90;;;10.88;;
83435;SDS011;73365;51.688;5.132;2023-11-21T07:24:16;18.27;;;11.15;;
83435;SDS011;73365;51.688;5.132;2023-11-21T07:26:42;21.00;;;12.20;;
83435;SDS011;73365;51.688;5.132;2023-11-21T07:29:07;21.33;;;10.93;;
83435;SDS011;73365;51.688;5.132;2023-11-21T07:31:33;21.05;;;12.32;;
83435;SDS011;73365;51.688;5.132;2023-11-21T07:33:59;22.23;;;12.60;;
83435;SDS011;73365;51.688;5.132;2023-11-21T07:36:25;21.30;;;11.43;;
83435;SDS011;73365;51.688;5.132;2023-11-21T07:38:50;21.95;;;13.15;;
83435;SDS011;73365;51.688;5.132;2023-11-21T07:41:16;18.60;;;11.75;;
83435;SDS011;73365;51.688;5.132;2023-11-21T07:43:43;22.98;;;12.60;;
83435;SDS011;73365;51.688;5.132;2023-11-21T07:46:09;22.27;;;11.13;;
83435;SDS011;73365;51.688;5.132;2023-11-21T07:48:34;20.23;;;10.90;;
83435;SDS011;73365;51.688;5.132;2023-11-21T07:51:02;19.95;;;11.02;;
83435;SDS011;73365;51.688;5.132;2023-11-21T07:53:32;26.35;;;12.95;;
83435;SDS011;73365;51.688;5.132;2023-11-21T07:55:58;22.38;;;11.30;;
83435;SDS011;73365;51.688;5.132;2023-11-21T07:58:30;24.42;;;12.18;;
83435;SDS011;73365;51.688;5.132;2023-11-21T08:00:56;26.13;;;11.95;;
83435;SDS011;73365;51.688;5.132;2023-11-21T08:03:21;23.48;;;12.98;;
83435;SDS011;73365;51.688;5.132;2023-11-21T08:05:47;21.88;;;12.27;;
83435;SDS011;73365;51.688;5.132;2023-11-21T08:08:12;22.85;;;11.52;;
83435;SDS011;73365;51.688;5.132;2023-11-21T08:13:07;21.92;;;11.13;;
83435;SDS011;73365;51.688;5.132;2023-11-21T08:15:34;21.23;;;10.63;;
83435;SDS011;73365;51.688;5.132;2023-11-21T08:18:00;24.85;;;11.52;;
83435;SDS011;73365;51.688;5.132;2023-11-21T08:20:25;21.48;;;10.48;;
83435;SDS011;73365;51.688;5.132;2023-11-21T08:22:51;24.00;;;10.55;;
83435;SDS011;73365;51.688;5.132;2023-11-21T08:25:21;21.98;;;10.80;;
83435;SDS011;73365;51.688;5.132;2023-11-21T08:27:47;20.50;;;11.88;;
83435;SDS011;73365;51.688;5.132;2023-11-21T08:30:12;25.23;;;11.40;;
83435;SDS011;73365;51.688;5.132;2023-11-21T08:32:42;23.40;;;11.75;;
83435;SDS011;73365;51.688;5.132;2023-11-21T08:35:07;19.70;;;9.18;;
83435;SDS011;73365;51.688;5.132;2023-11-21T08:37:33;19.25;;;9.88;;
83435;SDS011;73365;51.688;5.132;2023-11-21T08:40:02;17.55;;;9.52;;
83435;SDS011;73365;51.688;5.132;2023-11-21T08:42:29;15.25;;;8.02;;
83435;SDS011;73365;51.688;5.132;2023-11-21T08:44:55;18.17;;;8.85;;
83435;SDS011;73365;51.688;5.132;2023-11-21T08:47:23;14.02;;;8.15;;
83435;SDS011;73365;51.688;5.132;2023-11-21T08:49:51;15.32;;;7.65;;
83435;SDS011;73365;51.688;5.132;2023-11-21T08:52:20;13.32;;;7.68;;
83435;SDS011;73365;51.688;5.132;2023-11-21T08:54:49;13.32;;;7.13;;
83435;SDS011;73365;51.688;5.132;2023-11-21T08:57:21;10.85;;;6.72;;
83435;SDS011;73365;51.688;5.132;2023-11-21T08:59:47;10.85;;;5.75;;
83435;SDS011;73365;51.688;5.132;2023-11-21T09:02:12;11.60;;;6.57;;
83435;SDS011;73365;51.688;5.132;2023-11-21T09:04:37;12.90;;;6.32;;
83435;SDS011;73365;51.688;5.132;2023-11-21T09:07:03;12.90;;;6.37;;
83435;SDS011;73365;51.688;5.132;2023-11-21T09:09:28;12.13;;;5.50;;
83435;SDS011;73365;51.688;5.132;2023-11-21T09:11:55;12.50;;;6.13;;
83435;SDS011;73365;51.688;5.132;2023-11-21T09:14:20;9.85;;;6.03;;
83435;SDS011;73365;51.688;5.132;2023-11-21T09:16:45;14.43;;;6.65;;
83435;SDS011;73365;51.688;5.132;2023-11-21T09:19:11;11.82;;;6.53;;
83435;SDS011;73365;51.688;5.132;2023-11-21T09:21:39;12.65;;;6.72;;
83435;SDS011;73365;51.688;5.132;2023-11-21T09:24:04;10.48;;;6.68;;
83435;SDS011;73365;51.688;5.132;2023-11-21T09:26:30;13.32;;;6.63;;
83435;SDS011;73365;51.688;5.132;2023-11-21T09:28:55;14.52;;;6.80;;
83435;SDS011;73365;51.688;5.132;2023-11-21T09:33:47;13.25;;;6.88;;
83435;SDS011;73365;51.688;5.132;2023-11-21T09:36:13;12.77;;;6.22;;
83435;SDS011;73365;51.688;5.132;2023-11-21T09:41:05;10.05;;;5.25;;
83435;SDS011;73365;51.688;5.132;2023-11-21T09:43:42;11.30;;;5.70;;
83435;SDS011;73365;51.688;5.132;2023-11-21T09:46:09;9.52;;;5.57;;
83435;SDS011;73365;51.688;5.132;2023-11-21T09:48:37;9.63;;;6.60;;
83435;SDS011;73365;51.688;5.132;2023-11-21T09:51:04;10.40;;;6.05;;
83435;SDS011;73365;51.688;5.132;2023-11-21T09:53:30;8.40;;;5.68;;
83435;SDS011;73365;51.688;5.132;2023-11-21T09:55:58;9.75;;;5.63;;
83435;SDS011;73365;51.688;5.132;2023-11-21T09:58:25;8.27;;;5.82;;
83435;SDS011;73365;51.688;5.132;2023-11-21T10:00:55;13.35;;;6.35;;
83435;SDS011;73365;51.688;5.132;2023-11-21T10:03:22;11.73;;;5.68;;
83435;SDS011;73365;51.688;5.132;2023-11-21T10:05:48;12.68;;;6.65;;
83435;SDS011;73365;51.688;5.132;2023-11-21T10:08:15;10.10;;;6.70;;
83435;SDS011;73365;51.688;5.132;2023-11-21T10:10:45;12.63;;;6.68;;
83435;SDS011;73365;51.688;5.132;2023-11-21T10:13:13;9.65;;;6.57;;
83435;SDS011;73365;51.688;5.132;2023-11-21T10:15:41;8.77;;;5.78;;
83435;SDS011;73365;51.688;5.132;2023-11-21T10:18:12;9.30;;;5.75;;
83435;SDS011;73365;51.688;5.132;2023-11-21T10:20:40;8.63;;;5.93;;
83435;SDS011;73365;51.688;5.132;2023-11-21T10:23:06;8.60;;;5.30;;
83435;SDS011;73365;51.688;5.132;2023-11-21T10:25:36;8.05;;;5.45;;
83435;SDS011;73365;51.688;5.132;2023-11-21T10:28:02;9.35;;;5.38;;
83435;SDS011;73365;51.688;5.132;2023-11-21T10:30:32;8.25;;;6.03;;
83435;SDS011;73365;51.688;5.132;2023-11-21T10:33:02;7.82;;;5.88;;
83435;SDS011;73365;51.688;5.132;2023-11-21T10:35:39;8.02;;;5.32;;
83435;SDS011;73365;51.688;5.132;2023-11-21T10:38:11;8.70;;;4.97;;
83435;SDS011;73365;51.688;5.132;2023-11-21T10:40:39;8.18;;;5.43;;
83435;SDS011;73365;51.688;5.132;2023-11-21T10:43:10;6.03;;;4.53;;
83435;SDS011;73365;51.688;5.132;2023-11-21T10:45:38;6.28;;;4.80;;
83435;SDS011;73365;51.688;5.132;2023-11-21T10:48:07;6.57;;;4.20;;
83435;SDS011;73365;51.688;5.132;2023-11-21T10:50:34;7.85;;;4.55;;
83435;SDS011;73365;51.688;5.132;2023-11-21T10:53:02;5.95;;;4.20;;
83435;SDS011;73365;51.688;5.132;2023-11-21T10:55:29;8.65;;;4.65;;
83435;SDS011;73365;51.688;5.132;2023-11-21T10:57:56;7.53;;;4.60;;
83435;SDS011;73365;51.688;5.132;2023-11-21T11:00:23;5.55;;;3.72;;
83435;SDS011;73365;51.688;5.132;2023-11-21T11:02:51;6.05;;;3.75;;
83435;SDS011;73365;51.688;5.132;2023-11-21T11:05:19;5.38;;;3.33;;
83435;SDS011;73365;51.688;5.132;2023-11-21T11:07:45;6.78;;;3.83;;
83435;SDS011;73365;51.688;5.132;2023-11-21T11:10:13;6.20;;;3.63;;
83435;SDS011;73365;51.688;5.132;2023-11-21T11:12:41;7.18;;;3.90;;
83435;SDS011;73365;51.688;5.132;2023-11-21T11:15:07;6.38;;;4.25;;
83435;SDS011;73365;51.688;5.132;2023-11-21T11:17:35;7.18;;;4.30;;
83435;SDS011;73365;51.688;5.132;2023-11-21T11:20:03;7.60;;;4.38;;
83435;SDS011;73365;51.688;5.132;2023-11-21T11:27:59;7.35;;;4.13;;
83435;SDS011;73365;51.688;5.132;2023-11-21T11:33:39;6.30;;;4.10;;
83435;SDS011;73365;51.688;5.132;2023-11-21T11:36:44;10.00;;;5.22;;
83435;SDS011;73365;51.688;5.132;2023-11-21T11:42:12;10.38;;;4.90;;
83435;SDS011;73365;51.688;5.132;2023-11-21T11:52:46;11.60;;;7.07;;
83435;SDS011;73365;51.688;5.132;2023-11-21T11:55:16;9.63;;;7.40;;
83435;SDS011;73365;51.688;5.132;2023-11-21T11:57:46;11.35;;;7.20;;
83435;SDS011;73365;51.688;5.132;2023-11-21T12:00:18;9.73;;;6.47;;
83435;SDS011;73365;51.688;5.132;2023-11-21T12:02:51;12.23;;;7.72;;
83435;SDS011;73365;51.688;5.132;2023-11-21T12:05:18;10.63;;;6.82;;
83435;SDS011;73365;51.688;5.132;2023-11-21T12:10:11;12.63;;;8.15;;
83435;SDS011;73365;51.688;5.132;2023-11-21T12:12:41;10.93;;;6.65;;
83435;SDS011;73365;51.688;5.132;2023-11-21T12:15:08;13.90;;;7.93;;
83435;SDS011;73365;51.688;5.132;2023-11-21T12:17:34;12.07;;;7.15;;
83435;SDS011;73365;51.688;5.132;2023-11-21T12:22:39;10.77;;;5.57;;
83435;SDS011;73365;51.688;5.132;2023-11-21T12:25:06;8.95;;;5.28;;
83435;SDS011;73365;51.688;5.132;2023-11-21T12:27:32;8.23;;;5.00;;
83435;SDS011;73365;51.688;5.132;2023-11-21T12:29:57;10.23;;;5.50;;
83435;SDS011;73365;51.688;5.132;2023-11-21T12:32:23;7.03;;;4.90;;
83435;SDS011;73365;51.688;5.132;2023-11-21T12:34:50;7.90;;;4.10;;
83435;SDS011;73365;51.688;5.132;2023-11-21T12:37:16;7.22;;;4.60;;
83435;SDS011;73365;51.688;5.132;2023-11-21T12:39:42;6.45;;;4.13;;
83435;SDS011;73365;51.688;5.132;2023-11-21T12:42:07;7.50;;;5.00;;
83435;SDS011;73365;51.688;5.132;2023-11-21T12:46:58;8.65;;;4.53;;
83435;SDS011;73365;51.688;5.132;2023-11-21T12:49:24;8.43;;;4.97;;
83435;SDS011;73365;51.688;5.132;2023-11-21T12:51:50;14.38;;;6.93;;
83435;SDS011;73365;51.688;5.132;2023-11-21T12:56:41;11.10;;;7.57;;
83435;SDS011;73365;51.688;5.132;2023-11-21T12:59:06;11.90;;;8.30;;
83435;SDS011;73365;51.688;5.132;2023-11-21T13:03:57;14.93;;;7.87;;
83435;SDS011;73365;51.688;5.132;2023-11-21T13:06:27;11.98;;;7.15;;
83435;SDS011;73365;51.688;5.132;2023-11-21T13:08:53;12.75;;;6.97;;
83435;SDS011;73365;51.688;5.132;2023-11-21T13:11:19;13.10;;;7.55;;
83435;SDS011;73365;51.688;5.132;2023-11-21T13:13:45;12.83;;;7.20;;
83435;SDS011;73365;51.688;5.132;2023-11-21T13:16:10;11.82;;;7.28;;
83435;SDS011;73365;51.688;5.132;2023-11-21T13:21:03;12.18;;;6.97;;
83435;SDS011;73365;51.688;5.132;2023-11-21T13:23:35;19.17;;;8.52;;
83435;SDS011;73365;51.688;5.132;2023-11-21T13:26:03;14.27;;;6.97;;
83435;SDS011;73365;51.688;5.132;2023-11-21T13:28:29;12.57;;;7.40;;
83435;SDS011;73365;51.688;5.132;2023-11-21T13:30:58;13.73;;;7.70;;
83435;SDS011;73365;51.688;5.132;2023-11-21T13:33:29;11.68;;;6.88;;
83435;SDS011;73365;51.688;5.132;2023-11-21T13:35:55;11.68;;;6.72;;
83435;SDS011;73365;51.688;5.132;2023-11-21T13:38:21;13.40;;;6.97;;
83435;SDS011;73365;51.688;5.132;2023-11-21T13:40:51;12.35;;;6.50;;
83435;SDS011;73365;51.688;5.132;2023-11-21T13:43:21;10.75;;;5.72;;
83435;SDS011;73365;51.688;5.132;2023-11-21T13:45:49;12.13;;;6.28;;
83435;SDS011;73365;51.688;5.132;2023-11-21T13:48:23;10.25;;;5.75;;
83435;SDS011;73365;51.688;5.132;2023-11-21T13:50:53;16.60;;;5.90;;
83435;SDS011;73365;51.688;5.132;2023-11-21T13:53:26;11.93;;;6.03;;
83435;SDS011;73365;51.688;5.132;2023-11-21T13:55:52;10.35;;;5.53;;
83435;SDS011;73365;51.688;5.132;2023-11-21T13:58:24;9.13;;;5.97;;
83435;SDS011;73365;51.688;5.132;2023-11-21T14:01:09;10.00;;;6.35;;
83435;SDS011;73365;51.688;5.132;2023-11-21T14:03:53;11.60;;;6.47;;
83435;SDS011;73365;51.688;5.132;2023-11-21T14:06:25;11.75;;;6.38;;
83435;SDS011;73365;51.688;5.132;2023-11-21T14:08:57;12.75;;;7.22;;
83435;SDS011;73365;51.688;5.132;2023-11-21T14:11:23;13.55;;;7.65;;
83435;SDS011;73365;51.688;5.132;2023-11-21T14:16:14;12.10;;;7.28;;
83435;SDS011;73365;51.688;5.132;2023-11-21T14:18:42;10.88;;;6.22;;
83435;SDS011;73365;51.688;5.132;2023-11-21T14:21:18;11.68;;;6.32;;
83435;SDS011;73365;51.688;5.132;2023-11-21T14:23:44;11.55;;;6.88;;
83435;SDS011;73365;51.688;5.132;2023-11-21T14:26:10;12.05;;;6.63;;
83435;SDS011;73365;51.688;5.132;2023-11-21T14:28:38;12.55;;;7.00;;
83435;SDS011;73365;51.688;5.132;2023-11-21T14:31:04;12.68;;;7.38;;
83435;SDS011;73365;51.688;5.132;2023-11-21T14:35:55;11.52;;;7.10;;
83435;SDS011;73365;51.688;5.132;2023-11-21T14:38:22;15.63;;;7.80;;
83435;SDS011;73365;51.688;5.132;2023-11-21T14:40:48;12.88;;;7.90;;
83435;SDS011;73365;51.688;5.132;2023-11-21T14:43:14;13.60;;;7.95;;
83435;SDS011;73365;51.688;5.132;2023-11-21T14:45:39;13.45;;;7.57;;
83435;SDS011;73365;51.688;5.132;2023-11-21T14:50:31;12.63;;;8.20;;
83435;SDS011;73365;51.688;5.132;2023-11-21T14:53:35;13.90;;;8.13;;
83435;SDS011;73365;51.688;5.132;2023-11-21T14:56:21;12.90;;;7.97;;
83435;SDS011;73365;51.688;5.132;2023-11-21T14:58:54;14.73;;;8.52;;
83435;SDS011;73365;51.688;5.132;2023-11-21T15:01:21;14.05;;;8.70;;
83435;SDS011;73365;51.688;5.132;2023-11-21T15:04:07;12.85;;;7.55;;
83435;SDS011;73365;51.688;5.132;2023-11-21T15:08:59;12.68;;;7.63;;
83435;SDS011;73365;51.688;5.132;2023-11-21T15:11:24;15.73;;;9.05;;
83435;SDS011;73365;51.688;5.132;2023-11-21T15:13:55;12.65;;;7.90;;
83435;SDS011;73365;51.688;5.132;2023-11-21T15:16:21;14.52;;;8.95;;
83435;SDS011;73365;51.688;5.132;2023-11-21T15:18:47;13.02;;;7.95;;
83435;SDS011;73365;51.688;5.132;2023-11-21T15:21:12;12.93;;;7.63;;
83435;SDS011;73365;51.688;5.132;2023-11-21T15:26:04;14.93;;;8.20;;
83435;SDS011;73365;51.688;5.132;2023-11-21T15:30:57;11.02;;;6.60;;
83435;SDS011;73365;51.688;5.132;2023-11-21T15:33:23;10.05;;;5.95;;
83435;SDS011;73365;51.688;5.132;2023-11-21T15:35:48;8.70;;;5.32;;
83435;SDS011;73365;51.688;5.132;2023-11-21T15:40:39;8.10;;;4.90;;
83435;SDS011;73365;51.688;5.132;2023-11-21T15:43:04;8.55;;;5.90;;
83435;SDS011;73365;51.688;5.132;2023-11-21T15:45:32;9.80;;;5.03;;
83435;SDS011;73365;51.688;5.132;2023-11-21T15:47:57;8.57;;;4.57;;
83435;SDS011;73365;51.688;5.132;2023-11-21T15:50:23;10.80;;;5.13;;
83435;SDS011;73365;51.688;5.132;2023-11-21T15:52:49;7.72;;;4.75;;
83435;SDS011;73365;51.688;5.132;2023-11-21T15:55:15;10.32;;;5.75;;